Time;durP1;ratioP1;P1;durP2;ratioP2;P2;SDS_P1;SDS_P2;PMS_P1;PMS_P2;Temp;Humidity;BMP_temperature;BMP_pressure;BME280_temperature;BME280_humidity;BME280_pressure;Samples;Min_cycle;Max_cycle;Signal;HPM_P1;HPM_P2
2023/12/05 00:00:05;;;;;;;5.70;5.30;;;7.70;70.20;;;;;;4972193;28;20063;-85
2023/12/05 00:02:39;;;;;;;5.45;4.95;;;7.70;70.20;;;;;;4989452;28;20058;-83
2023/12/05 00:05:07;;;;;;;5.10;4.70;;;7.60;69.90;;;;;;4982345;28;20249;-82
2023/12/05 00:07:34;;;;;;;5.05;4.65;;;7.70;70.10;;;;;;4984301;28;20041;-83
2023/12/05 00:10:00;;;;;;;5.03;4.63;;;7.60;70.00;;;;;;4992843;28;20036;-81
2023/12/05 00:12:26;;;;;;;4.88;4.47;;;7.60;69.90;;;;;;4993119;28;20081;-82
2023/12/05 00:14:53;;;;;;;5.03;4.63;;;7.60;69.90;;;;;;4984245;28;20451;-80
2023/12/05 00:17:19;;;;;;;5.20;4.80;;;7.60;69.90;;;;;;4988742;28;20034;-83
2023/12/05 00:19:45;;;;;;;4.50;4.20;;;7.60;69.90;;;;;;4970318;28;20080;-82
2023/12/05 00:22:15;;;;;;;4.43;4.13;;;7.60;69.90;;;;;;4988352;28;20037;-81
2023/12/05 00:24:44;;;;;;;4.55;4.22;;;7.60;69.90;;;;;;4986929;28;20494;-82
2023/12/05 00:27:13;;;;;;;4.13;3.83;;;7.60;69.90;;;;;;4991591;28;20030;-81
2023/12/05 00:29:39;;;;;;;4.53;4.20;;;7.60;69.90;;;;;;4973547;28;20470;-81
2023/12/05 00:32:06;;;;;;;4.20;3.80;;;7.60;69.90;;;;;;4973312;28;20034;-80
2023/12/05 00:34:32;;;;;;;5.20;4.70;;;7.60;69.90;;;;;;4987862;28;20077;-81
2023/12/05 00:37:01;;;;;;;3.72;3.42;;;7.60;69.90;;;;;;4988820;28;20054;-81
2023/12/05 00:39:27;;;;;;;4.65;4.25;;;7.60;69.90;;;;;;4988885;28;20097;-81
2023/12/05 00:41:54;;;;;;;4.07;3.78;;;7.50;69.70;;;;;;4982692;28;20038;-83
2023/12/05 00:44:27;;;;;;;3.80;3.50;;;7.60;69.90;;;;;;4988509;28;20117;-81
2023/12/05 00:46:55;;;;;;;4.13;3.80;;;7.60;69.90;;;;;;4969831;28;20034;-82
2023/12/05 00:49:21;;;;;;;3.67;3.38;;;7.50;69.70;;;;;;5001821;28;20057;-81
2023/12/05 00:51:47;;;;;;;3.58;3.28;;;7.50;69.70;;;;;;5008979;28;20045;-82
2023/12/05 00:54:14;;;;;;;4.32;3.92;;;7.50;69.70;;;;;;5007241;28;20041;-82
2023/12/05 00:56:42;;;;;;;3.50;3.20;;;7.50;69.70;;;;;;4993331;28;20045;-80
2023/12/05 00:59:10;;;;;;;3.42;3.15;;;7.50;69.70;;;;;;5008066;28;20535;-81
2023/12/05 01:01:36;;;;;;;3.60;3.30;;;7.50;69.70;;;;;;5011207;28;20428;-82
2023/12/05 01:04:02;;;;;;;3.08;2.88;;;7.50;69.70;;;;;;5009818;28;20038;-81
2023/12/05 01:06:28;;;;;;;3.08;2.88;;;7.50;69.70;;;;;;5004486;28;20471;-84
2023/12/05 01:08:54;;;;;;;3.53;3.22;;;7.50;69.70;;;;;;4989624;28;20033;-82
2023/12/05 01:11:21;;;;;;;3.05;2.85;;;7.50;69.70;;;;;;4987154;28;20046;-82
2023/12/05 01:13:47;;;;;;;3.38;3.08;;;7.50;69.70;;;;;;5006644;28;20116;-83
2023/12/05 01:16:14;;;;;;;3.30;3.00;;;7.50;69.70;;;;;;5006563;28;20085;-83
2023/12/05 01:18:41;;;;;;;2.72;2.55;;;7.50;69.70;;;;;;5004967;28;20422;-83
2023/12/05 01:21:07;;;;;;;2.95;2.63;;;7.50;69.60;;;;;;5007207;28;20026;-82
2023/12/05 01:23:33;;;;;;;3.08;2.88;;;7.50;69.60;;;;;;5004809;28;20076;-81
2023/12/05 01:26:00;;;;;;;2.67;2.47;;;7.50;69.60;;;;;;5005442;28;20588;-83
2023/12/05 01:28:25;;;;;;;2.78;2.58;;;7.50;69.60;;;;;;4988072;28;20048;-80
2023/12/05 01:30:52;;;;;;;2.58;2.38;;;7.50;69.60;;;;;;5005530;28;20483;-82
2023/12/05 01:33:18;;;;;;;2.67;2.47;;;7.50;69.60;;;;;;4988287;28;20030;-83
2023/12/05 01:35:44;;;;;;;2.40;2.20;;;7.50;69.60;;;;;;5005612;28;20064;-81
2023/12/05 01:38:09;;;;;;;2.60;2.40;;;7.50;69.60;;;;;;5006415;28;20041;-82
2023/12/05 01:40:35;;;;;;;2.20;2.10;;;7.50;69.50;;;;;;5003644;28;20033;-82
2023/12/05 01:43:01;;;;;;;1.85;1.75;;;7.50;69.50;;;;;;5007768;28;20038;-82
2023/12/05 01:45:29;;;;;;;2.50;2.30;;;7.50;69.50;;;;;;5006897;28;20025;-82
2023/12/05 01:47:55;;;;;;;2.67;2.47;;;7.50;69.50;;;;;;5007242;28;20050;-85
2023/12/05 01:50:25;;;;;;;2.28;2.08;;;7.50;69.50;;;;;;4991172;28;20040;-82
2023/12/05 01:52:56;;;;;;;2.00;1.90;;;7.50;69.50;;;;;;5006376;28;20034;-82
2023/12/05 01:55:23;;;;;;;2.00;1.90;;;7.50;69.50;;;;;;5011921;28;20027;-82
2023/12/05 01:57:51;;;;;;;1.85;1.75;;;7.50;69.50;;;;;;5025377;28;20144;-82
2023/12/05 02:00:18;;;;;;;2.08;1.98;;;7.50;69.50;;;;;;5010180;28;20213;-82
2023/12/05 02:02:49;;;;;;;1.70;1.60;;;7.50;69.40;;;;;;5025815;28;20030;-81
2023/12/05 02:05:15;;;;;;;1.88;1.77;;;7.50;69.40;;;;;;5004165;28;20037;-81
2023/12/05 02:07:42;;;;;;;2.08;1.88;;;7.50;69.50;;;;;;5022577;28;20037;-82
2023/12/05 02:10:10;;;;;;;2.63;1.95;;;7.50;70.00;;;;;;5025166;28;20028;-81
2023/12/05 02:12:39;;;;;;;1.52;1.42;;;7.50;69.40;;;;;;5025935;28;20032;-82
2023/12/05 02:15:06;;;;;;;1.85;1.73;;;7.50;69.40;;;;;;5008643;28;20037;-81
2023/12/05 02:17:48;;;;;;;1.92;1.50;;;7.50;69.40;;;;;;5008684;28;20120;-81
2023/12/05 02:20:19;;;;;;;1.83;1.50;;;7.50;69.40;;;;;;5008247;28;20048;-79
2023/12/05 02:23:15;;;;;;;1.50;1.40;;;7.50;69.40;;;;;;5003077;28;20076;-81
2023/12/05 02:26:04;;;;;;;1.10;1.00;;;7.50;69.40;;;;;;5006144;28;20030;-81
2023/12/05 02:28:34;;;;;;;1.48;1.38;;;7.50;69.30;;;;;;5000121;28;20025;-81
2023/12/05 02:31:00;;;;;;;1.73;1.63;;;7.50;69.30;;;;;;4988267;28;20504;-81
2023/12/05 02:33:27;;;;;;;1.40;1.15;;;7.50;69.30;;;;;;4988944;28;20044;-81
2023/12/05 02:36:08;;;;;;;1.30;1.20;;;7.50;69.40;;;;;;5001689;28;20221;-81
2023/12/05 02:38:45;;;;;;;1.50;1.40;;;7.50;69.30;;;;;;5007112;28;20049;-82
2023/12/05 02:41:21;;;;;;;1.38;1.27;;;7.50;69.30;;;;;;5005186;28;20037;-81
2023/12/05 02:43:58;;;;;;;1.50;1.40;;;7.50;69.30;;;;;;5007356;28;20030;-84
2023/12/05 02:46:28;;;;;;;1.38;1.27;;;7.50;69.30;;;;;;5001090;28;20491;-81
2023/12/05 02:48:57;;;;;;;1.30;1.20;;;7.50;69.30;;;;;;4992072;28;20070;-81
2023/12/05 02:51:24;;;;;;;1.27;1.17;;;7.50;69.30;;;;;;4990150;28;20030;-83
2023/12/05 02:53:49;;;;;;;1.27;1.17;;;7.50;69.30;;;;;;4973586;28;20093;-80
2023/12/05 02:56:18;;;;;;;0.90;0.90;;;7.50;69.30;;;;;;4994090;28;20049;-82
2023/12/05 02:58:45;;;;;;;1.20;1.10;;;7.50;69.30;;;;;;4992726;28;20050;-81
2023/12/05 03:01:14;;;;;;;1.00;0.98;;;7.50;69.30;;;;;;4990745;28;20483;-82
2023/12/05 03:03:39;;;;;;;0.98;0.98;;;7.50;69.30;;;;;;4991206;28;20120;-80
2023/12/05 03:06:05;;;;;;;0.70;0.70;;;7.50;69.30;;;;;;4985712;28;20038;-82
2023/12/05 03:08:31;;;;;;;1.20;1.08;;;7.50;69.30;;;;;;4991867;28;20050;-82
2023/12/05 03:10:57;;;;;;;0.98;0.98;;;7.50;69.30;;;;;;4971489;28;20027;-81
2023/12/05 03:13:24;;;;;;;1.05;1.00;;;7.50;69.30;;;;;;4968192;28;20542;-82
2023/12/05 03:15:50;;;;;;;0.90;0.90;;;7.50;69.30;;;;;;4959989;28;20050;-81
2023/12/05 03:18:16;;;;;;;0.77;0.75;;;7.50;69.30;;;;;;4957309;28;20036;-80
2023/12/05 03:20:42;;;;;;;0.70;0.70;;;7.50;69.30;;;;;;4992219;28;20058;-82
2023/12/05 03:23:08;;;;;;;1.13;0.90;;;7.50;69.30;;;;;;4992733;28;20149;-84
2023/12/05 03:25:34;;;;;;;0.70;0.70;;;7.50;69.30;;;;;;4991051;28;20833;-82
2023/12/05 03:28:00;;;;;;;0.90;0.90;;;7.50;69.30;;;;;;4993426;28;20057;-82
2023/12/05 03:30:29;;;;;;;0.70;0.70;;;7.50;69.30;;;;;;4991179;28;20096;-81
2023/12/05 03:32:55;;;;;;;0.90;0.90;;;7.50;69.80;;;;;;4962766;28;20054;-81
2023/12/05 03:35:21;;;;;;;1.50;0.82;;;7.60;69.40;;;;;;4993429;28;20686;-81
2023/12/05 03:37:47;;;;;;;0.88;0.80;;;7.60;69.40;;;;;;4991553;28;20046;-82
2023/12/05 03:40:13;;;;;;;1.48;0.90;;;7.60;69.40;;;;;;4993007;28;20038;-84
2023/12/05 03:42:39;;;;;;;0.98;0.98;;;7.50;69.20;;;;;;4990381;28;20057;-83
2023/12/05 03:45:06;;;;;;;0.88;0.88;;;7.60;69.40;;;;;;4992579;28;20495;-81
2023/12/05 03:47:33;;;;;;;2.35;0.70;;;7.60;69.40;;;;;;4992752;28;20047;-83
2023/12/05 03:50:02;;;;;;;0.60;0.60;;;7.50;69.20;;;;;;4988292;28;20049;-83
2023/12/05 03:52:28;;;;;;;0.52;0.52;;;7.60;69.30;;;;;;4979796;28;20034;-83
2023/12/05 03:54:54;;;;;;;0.70;0.70;;;7.50;69.20;;;;;;4975258;28;20190;-82
2023/12/05 03:57:20;;;;;;;1.17;0.80;;;7.50;69.10;;;;;;4993528;28;20030;-83
2023/12/05 03:59:47;;;;;;;0.60;0.60;;;7.60;69.30;;;;;;4992811;28;20048;-82
2023/12/05 04:02:13;;;;;;;0.52;0.52;;;7.60;69.30;;;;;;4981583;28;20093;-82
2023/12/05 04:04:40;;;;;;;0.77;0.77;;;7.60;69.30;;;;;;4975291;28;20034;-83
2023/12/05 04:07:06;;;;;;;0.63;0.63;;;7.60;69.20;;;;;;4989141;28;20042;-83
2023/12/05 04:09:33;;;;;;;0.55;0.50;;;7.60;69.30;;;;;;4992780;28;20054;-85
2023/12/05 04:11:59;;;;;;;0.75;0.73;;;7.60;69.20;;;;;;4975251;28;20261;-82
2023/12/05 04:14:24;;;;;;;0.80;0.80;;;7.60;69.20;;;;;;4990982;28;20038;-84
2023/12/05 04:16:51;;;;;;;0.70;0.70;;;7.60;69.20;;;;;;4990800;28;20031;-82
2023/12/05 04:19:17;;;;;;;0.77;0.65;;;7.60;69.20;;;;;;4973998;28;20496;-82
2023/12/05 04:21:44;;;;;;;1.88;0.65;;;7.60;69.20;;;;;;4991825;28;20030;-82
2023/12/05 04:24:10;;;;;;;0.45;0.45;;;7.60;69.20;;;;;;4993340;28;20034;-81
2023/12/05 04:26:36;;;;;;;0.80;0.60;;;7.60;69.20;;;;;;4990283;28;20042;-83
2023/12/05 04:29:03;;;;;;;0.60;0.60;;;7.60;69.10;;;;;;4996818;28;20127;-83
2023/12/05 04:31:30;;;;;;;0.65;0.65;;;7.70;69.30;;;;;;4992370;28;20034;-81
2023/12/05 04:33:56;;;;;;;0.85;0.60;;;7.60;69.10;;;;;;4986440;28;20030;-83
2023/12/05 04:36:25;;;;;;;0.50;0.50;;;7.60;69.10;;;;;;4984942;28;20092;-81
2023/12/05 04:38:51;;;;;;;0.52;0.52;;;7.60;69.10;;;;;;4974131;28;20049;-85
2023/12/05 04:41:17;;;;;;;0.75;0.60;;;7.70;69.30;;;;;;4975305;28;20026;-86
2023/12/05 04:43:44;;;;;;;0.60;0.60;;;7.70;69.30;;;;;;4975626;28;20120;-86
2023/12/05 04:46:11;;;;;;;1.00;0.70;;;7.70;69.20;;;;;;4995594;28;20026;-85
2023/12/05 04:48:37;;;;;;;0.70;0.70;;;7.70;69.20;;;;;;5005209;28;20124;-82
2023/12/05 04:51:04;;;;;;;0.65;0.60;;;7.70;69.20;;;;;;5010032;28;20033;-83
2023/12/05 04:53:31;;;;;;;0.55;0.55;;;7.70;69.20;;;;;;4993458;28;20391;-81
2023/12/05 04:55:57;;;;;;;1.05;0.77;;;7.70;69.20;;;;;;4977150;28;20073;-81
2023/12/05 04:58:28;;;;;;;0.50;0.50;;;7.70;69.20;;;;;;5012147;28;20125;-83
2023/12/05 05:00:56;;;;;;;0.60;0.60;;;7.70;69.20;;;;;;5012653;28;20053;-82
2023/12/05 05:03:22;;;;;;;1.55;0.70;;;7.70;69.20;;;;;;4997324;28;20186;-81
2023/12/05 05:05:50;;;;;;;0.52;0.50;;;7.70;69.20;;;;;;5011975;28;20025;-80
2023/12/05 05:08:16;;;;;;;1.67;0.45;;;7.70;69.20;;;;;;5016942;28;20037;-81
2023/12/05 05:10:42;;;;;;;0.50;0.50;;;7.70;69.20;;;;;;5011685;28;20076;-82
2023/12/05 05:13:08;;;;;;;0.75;0.70;;;7.70;69.20;;;;;;4991683;28;20034;-82
2023/12/05 05:15:35;;;;;;;0.70;0.57;;;7.60;69.10;;;;;;5011532;28;20038;-81
2023/12/05 05:18:01;;;;;;;1.00;0.50;;;7.60;69.10;;;;;;5010061;28;20033;-80
2023/12/05 05:20:30;;;;;;;0.50;0.50;;;7.70;69.30;;;;;;5009152;28;20044;-82
2023/12/05 05:22:55;;;;;;;1.35;0.63;;;7.60;69.10;;;;;;5010450;28;20026;-82
2023/12/05 05:25:21;;;;;;;1.65;0.43;;;7.70;69.30;;;;;;4993567;28;20111;-82
2023/12/05 05:27:51;;;;;;;1.35;0.50;;;7.70;69.30;;;;;;5010921;28;20033;-80
2023/12/05 05:30:17;;;;;;;0.90;0.60;;;7.60;69.10;;;;;;5010069;28;20042;-81
2023/12/05 05:32:43;;;;;;;0.90;0.57;;;7.70;69.50;;;;;;5010499;28;20048;-81
2023/12/05 05:35:09;;;;;;;0.77;0.40;;;7.70;69.30;;;;;;4987910;28;20089;-83
2023/12/05 05:37:36;;;;;;;1.00;0.63;;;7.60;69.10;;;;;;5011296;28;20120;-82
2023/12/05 05:40:03;;;;;;;0.55;0.40;;;7.70;69.30;;;;;;5010098;28;20511;-81
2023/12/05 05:42:29;;;;;;;0.60;0.55;;;7.70;69.30;;;;;;5010132;28;20089;-83
2023/12/05 05:44:56;;;;;;;0.40;0.40;;;7.70;69.30;;;;;;5010188;28;20034;-82
2023/12/05 05:47:24;;;;;;;0.40;0.40;;;7.70;69.30;;;;;;4987706;28;20041;-80
2023/12/05 05:49:50;;;;;;;0.70;0.65;;;7.60;69.10;;;;;;4990691;28;20471;-82
2023/12/05 05:52:16;;;;;;;0.88;0.60;;;7.60;69.10;;;;;;4988603;28;20058;-83
2023/12/05 05:54:43;;;;;;;0.50;0.50;;;7.70;69.30;;;;;;4994990;28;20480;-81
2023/12/05 05:57:09;;;;;;;0.68;0.60;;;7.60;69.10;;;;;;5004673;28;20034;-83
2023/12/05 05:59:36;;;;;;;0.68;0.60;;;7.70;69.40;;;;;;4991116;28;20042;-81
2023/12/05 06:02:04;;;;;;;1.40;1.30;;;7.70;69.40;;;;;;4994142;28;20480;-81
2023/12/05 06:04:30;;;;;;;1.42;0.90;;;7.60;69.20;;;;;;4983506;28;20046;-82
2023/12/05 06:06:58;;;;;;;1.27;1.17;;;7.70;69.40;;;;;;4983929;28;20038;-83
2023/12/05 06:09:24;;;;;;;1.67;1.55;;;7.60;69.20;;;;;;4991816;28;20113;-83
2023/12/05 06:11:50;;;;;;;3.03;1.80;;;7.60;69.20;;;;;;5005986;28;20113;-83
2023/12/05 06:14:16;;;;;;;2.05;1.92;;;7.60;69.20;;;;;;5001221;28;20062;-83
2023/12/05 06:16:44;;;;;;;2.60;2.40;;;7.60;69.20;;;;;;4990637;28;20109;-82
2023/12/05 06:19:11;;;;;;;2.60;2.40;;;7.60;69.20;;;;;;4996599;28;20057;-83
2023/12/05 06:21:38;;;;;;;3.42;3.13;;;7.60;69.20;;;;;;4987857;28;20224;-80
2023/12/05 06:24:05;;;;;;;3.40;2.97;;;7.60;69.20;;;;;;4989716;28;20113;-84
2023/12/05 06:26:30;;;;;;;4.00;3.70;;;7.60;69.20;;;;;;4989982;28;20073;-83
2023/12/05 06:29:02;;;;;;;4.45;3.50;;;7.60;69.20;;;;;;4999167;28;20050;-81
2023/12/05 06:31:29;;;;;;;3.30;3.00;;;7.60;69.20;;;;;;4994914;28;20038;-87
2023/12/05 06:33:57;;;;;;;4.72;4.22;;;7.60;69.20;;;;;;4998209;28;20286;-82
2023/12/05 06:36:30;;;;;;;5.88;5.00;;;7.70;69.60;;;;;;5010735;28;20034;-85
2023/12/05 06:38:57;;;;;;;6.55;5.65;;;7.70;69.70;;;;;;4995501;28;20074;-83
2023/12/05 06:41:23;;;;;;;6.70;6.10;;;7.80;70.00;;;;;;5006526;28;20093;-83
2023/12/05 06:43:59;;;;;;;;;;;;;;;;;;;;;
2023/12/05 06:46:25;;;;;;;8.35;7.63;;;7.80;70.00;;;;;;4997176;28;20076;-84
2023/12/05 06:48:51;;;;;;;8.70;7.32;;;7.80;70.00;;;;;;5009674;28;20050;-81
2023/12/05 06:51:19;;;;;;;9.48;8.00;;;7.80;69.90;;;;;;5019169;28;20033;-85
2023/12/05 06:53:49;;;;;;;9.25;8.25;;;7.80;69.90;;;;;;5017289;28;20077;-83
2023/12/05 06:56:22;;;;;;;8.30;7.57;;;7.80;70.00;;;;;;4997302;28;20037;-83
2023/12/05 06:58:50;;;;;;;10.65;9.60;;;7.80;70.00;;;;;;5020745;28;20042;-83
2023/12/05 07:01:20;;;;;;;9.40;8.35;;;7.80;70.00;;;;;;5022646;28;20030;-84
2023/12/05 07:03:48;;;;;;;11.75;9.02;;;7.80;70.00;;;;;;5006111;28;20033;-87
2023/12/05 07:06:23;;;;;;;9.95;9.05;;;7.80;70.00;;;;;;5027343;28;20045;-89
2023/12/05 07:08:50;;;;;;;10.00;8.82;;;7.80;70.00;;;;;;5006936;28;20044;-87
2023/12/05 07:11:18;;;;;;;10.80;9.35;;;7.70;69.90;;;;;;5014770;28;20318;-90
2023/12/05 07:13:46;;;;;;;10.55;9.55;;;7.80;70.20;;;;;;5008728;28;20028;-89
2023/12/05 07:16:12;;;;;;;10.25;9.25;;;7.80;70.20;;;;;;5007359;28;20088;-87
2023/12/05 07:18:38;;;;;;;10.10;8.88;;;7.80;70.20;;;;;;4990725;28;20041;-87
2023/12/05 07:21:08;;;;;;;9.10;8.27;;;7.80;70.20;;;;;;5009311;28;20068;-88
2023/12/05 07:23:34;;;;;;;10.18;9.18;;;7.80;70.30;;;;;;5007770;28;20073;-90
2023/12/05 07:26:01;;;;;;;10.15;9.15;;;7.80;70.10;;;;;;5009895;28;20030;-89
2023/12/05 07:28:27;;;;;;;10.55;9.35;;;7.80;70.10;;;;;;5011319;28;20056;-89
2023/12/05 07:30:58;;;;;;;10.00;9.02;;;7.80;70.10;;;;;;5012831;28;20030;-88
2023/12/05 07:33:24;;;;;;;9.32;8.43;;;7.80;70.10;;;;;;5009158;28;20037;-89
2023/12/05 07:35:51;;;;;;;8.52;7.72;;;7.80;70.10;;;;;;5009758;28;20068;-91
2023/12/05 07:38:17;;;;;;;8.50;7.70;;;7.70;69.90;;;;;;5007911;28;20022;-90
2023/12/05 07:40:44;;;;;;;9.27;8.25;;;7.70;69.90;;;;;;5014197;28;20038;-89
2023/12/05 07:43:12;;;;;;;8.63;7.80;;;7.70;69.90;;;;;;5018338;28;20044;-85
2023/12/05 07:45:38;;;;;;;8.57;7.68;;;7.70;69.90;;;;;;5011486;28;20705;-88
2023/12/05 07:48:06;;;;;;;7.90;7.20;;;7.70;69.90;;;;;;4993915;28;20069;-87
2023/12/05 07:50:34;;;;;;;8.40;7.60;;;7.60;69.70;;;;;;5021793;28;20344;-88
2023/12/05 07:53:16;;;;;;;7.68;6.97;;;7.70;69.90;;;;;;5031423;28;20201;-86
2023/12/05 07:55:45;;;;;;;7.45;6.75;;;7.60;69.70;;;;;;5034300;28;20021;-88
2023/12/05 07:58:12;;;;;;;8.65;7.80;;;7.60;69.70;;;;;;5012872;28;20038;-84
2023/12/05 08:00:39;;;;;;;7.80;6.93;;;7.60;69.60;;;;;;5030659;28;20025;-86
2023/12/05 08:03:05;;;;;;;8.02;7.28;;;7.60;69.60;;;;;;5029649;28;20038;-82
2023/12/05 08:05:33;;;;;;;7.07;6.40;;;7.60;69.60;;;;;;5024854;28;20122;-85
2023/12/05 08:08:00;;;;;;;6.97;6.28;;;7.60;69.60;;;;;;5002207;28;20054;-87
2023/12/05 08:10:27;;;;;;;6.97;6.35;;;7.60;69.60;;;;;;5012265;28;20117;-87
2023/12/05 08:12:53;;;;;;;6.93;6.28;;;7.60;69.60;;;;;;5008706;28;20034;-86
2023/12/05 08:15:23;;;;;;;6.45;5.78;;;7.60;69.60;;;;;;5009862;28;20095;-87
2023/12/05 08:17:51;;;;;;;6.63;5.93;;;7.60;69.60;;;;;;5010444;28;20061;-86
2023/12/05 08:20:19;;;;;;;6.38;5.78;;;7.60;69.50;;;;;;4993115;28;20038;-88
2023/12/05 08:22:48;;;;;;;6.22;5.63;;;7.60;69.50;;;;;;4962449;28;20037;-88
2023/12/05 08:25:15;;;;;;;6.25;5.65;;;7.60;69.50;;;;;;5007530;28;20030;-88
2023/12/05 08:27:41;;;;;;;6.20;5.60;;;7.60;69.50;;;;;;4993189;28;20049;-88
2023/12/05 08:30:07;;;;;;;6.72;6.13;;;7.60;69.50;;;;;;4993491;28;20033;-86
2023/12/05 08:32:33;;;;;;;6.68;5.90;;;7.60;69.40;;;;;;5009832;28;20049;-87
2023/12/05 08:35:00;;;;;;;5.80;5.22;;;7.60;69.40;;;;;;4991931;28;20044;-86
2023/12/05 08:37:27;;;;;;;6.00;5.50;;;7.60;69.40;;;;;;5009733;28;20042;-91
2023/12/05 08:39:54;;;;;;;6.50;5.90;;;7.60;69.40;;;;;;4993627;28;20046;-91
2023/12/05 08:42:23;;;;;;;6.68;6.03;;;7.60;69.40;;;;;;4994758;28;20048;-90
2023/12/05 08:44:54;;;;;;;5.78;5.25;;;7.60;69.30;;;;;;5011208;28;20147;-90
2023/12/05 08:47:21;;;;;;;6.47;5.88;;;7.60;69.30;;;;;;4997332;28;20098;-87
2023/12/05 08:49:48;;;;;;;5.90;5.40;;;7.60;69.30;;;;;;4987309;28;20600;-87
2023/12/05 08:52:21;;;;;;;6.03;5.50;;;7.60;69.30;;;;;;5004451;28;20102;-90
2023/12/05 08:54:53;;;;;;;6.03;5.53;;;7.70;69.50;;;;;;4998395;28;20050;-92
2023/12/05 08:57:19;;;;;;;6.05;5.45;;;7.70;69.50;;;;;;4982426;28;20034;-88
2023/12/05 08:59:46;;;;;;;5.53;5.03;;;7.70;69.60;;;;;;4994213;28;20046;-90
2023/12/05 09:02:12;;;;;;;5.65;4.95;;;7.80;69.80;;;;;;4971897;28;20506;-89
2023/12/05 09:04:39;;;;;;;4.47;4.07;;;7.80;69.80;;;;;;4996915;28;20488;-96
2023/12/05 09:07:21;;;;;;;5.22;4.50;;;7.90;70.20;;;;;;5014033;28;20007;-96
2023/12/05 09:09:51;;;;;;;4.70;4.18;;;8.10;71.10;;;;;;5001484;28;20015;-96
2023/12/05 09:12:17;;;;;;;4.28;3.85;;;8.30;71.50;;;;;;5016804;28;20034;-96
2023/12/05 09:14:45;;;;;;;4.70;4.03;;;8.60;71.70;;;;;;4998881;28;20389;-96
2023/12/05 09:17:12;;;;;;;5.45;3.67;;;9.00;72.10;;;;;;5000303;28;20038;-96
2023/12/05 09:20:10;;;;;;;4.20;3.85;;;9.30;72.20;;;;;;5000005;28;20144;-95
2023/12/05 09:22:41;;;;;;;3.00;2.72;;;9.60;72.10;;;;;;5011034;28;20038;-96
2023/12/05 09:25:32;;;;;;;3.00;2.80;;;10.00;71.90;;;;;;5011089;28;20041;-94
2023/12/05 09:28:00;;;;;;;3.00;2.80;;;10.30;71.90;;;;;;4995797;28;20039;-96
2023/12/05 09:30:28;;;;;;;2.83;2.63;;;10.60;71.70;;;;;;4995503;28;20305;-96
2023/12/05 09:32:55;;;;;;;2.80;2.60;;;10.80;71.60;;;;;;5004213;28;20057;-96
2023/12/05 09:35:22;;;;;;;2.53;2.33;;;11.10;71.60;;;;;;4997289;28;20045;-95
2023/12/05 09:37:52;;;;;;;2.40;2.20;;;11.20;71.40;;;;;;4993910;28;20022;-91
2023/12/05 09:40:22;;;;;;;2.45;2.08;;;11.40;71.30;;;;;;4989985;28;20456;-95
2023/12/05 09:42:50;;;;;;;3.20;2.50;;;11.60;71.20;;;;;;4987426;28;20050;-95
2023/12/05 09:45:18;;;;;;;2.10;1.90;;;11.80;71.10;;;;;;4992552;28;20161;-85
2023/12/05 09:47:47;;;;;;;4.63;2.47;;;11.90;70.90;;;;;;4992520;28;20035;-89
2023/12/05 09:50:13;;;;;;;2.28;2.08;;;12.10;70.80;;;;;;4990210;28;20041;-87
2023/12/05 09:52:44;;;;;;;2.67;2.40;;;12.10;70.40;;;;;;4989706;28;20444;-90
2023/12/05 09:55:10;;;;;;;8.10;2.58;;;12.20;70.30;;;;;;4989361;28;20068;-88
2023/12/05 09:57:39;;;;;;;2.53;1.90;;;12.20;70.50;;;;;;4990622;28;20492;-89
2023/12/05 10:00:07;;;;;;;2.47;2.28;;;12.20;70.20;;;;;;5008688;28;20045;-87
2023/12/05 10:02:40;;;;;;;2.10;1.90;;;12.30;70.40;;;;;;5008894;28;20091;-87
2023/12/05 10:05:12;;;;;;;2.75;2.20;;;12.40;70.40;;;;;;5004812;28;20037;-89
2023/12/05 10:07:39;;;;;;;2.58;1.90;;;12.50;70.40;;;;;;5003058;28;20099;-88
2023/12/05 10:10:05;;;;;;;1.60;1.50;;;12.60;70.30;;;;;;4991108;28;20781;-89
2023/12/05 10:12:33;;;;;;;3.08;2.17;;;12.70;70.20;;;;;;5006411;28;20038;-89
2023/12/05 10:15:01;;;;;;;2.13;1.92;;;12.80;70.10;;;;;;5007837;28;20038;-89
2023/12/05 10:17:33;;;;;;;2.67;1.60;;;12.90;69.90;;;;;;5011593;28;20026;-88
2023/12/05 10:19:59;;;;;;;2.03;1.83;;;13.00;69.80;;;;;;4993551;28;20496;-89
2023/12/05 10:22:26;;;;;;;1.60;1.50;;;13.10;69.70;;;;;;5007340;28;20033;-90
2023/12/05 10:24:55;;;;;;;2.58;1.65;;;13.10;69.50;;;;;;5008964;28;20060;-89
2023/12/05 10:27:22;;;;;;;2.75;1.83;;;13.20;69.40;;;;;;5004699;28;20537;-88
2023/12/05 10:29:48;;;;;;;1.65;1.50;;;13.30;69.80;;;;;;5009040;28;20094;-89
2023/12/05 10:32:14;;;;;;;3.28;1.70;;;13.30;69.10;;;;;;4990580;28;20057;-89
2023/12/05 10:34:45;;;;;;;1.63;1.52;;;13.30;68.80;;;;;;5010568;28;20034;-90
2023/12/05 10:37:12;;;;;;;2.88;1.63;;;13.40;68.70;;;;;;5012861;28;20033;-88
2023/12/05 10:39:38;;;;;;;1.35;1.25;;;13.50;68.70;;;;;;5011465;28;20049;-90
2023/12/05 10:42:06;;;;;;;1.67;1.58;;;13.50;68.50;;;;;;5006573;28;20053;-90
2023/12/05 10:44:39;;;;;;;1.45;1.10;;;13.60;68.40;;;;;;5006246;28;20033;-90
2023/12/05 10:47:12;;;;;;;1.17;1.08;;;13.60;68.10;;;;;;5016217;28;20503;-89
2023/12/05 10:49:42;;;;;;;1.52;1.30;;;13.70;68.10;;;;;;4996206;28;20077;-89
2023/12/05 10:52:13;;;;;;;1.42;1.15;;;13.80;68.00;;;;;;4970658;28;20811;-89
2023/12/05 10:54:41;;;;;;;1.95;1.33;;;13.80;67.70;;;;;;4990791;28;20512;-89
2023/12/05 10:57:11;;;;;;;1.38;1.27;;;13.90;67.70;;;;;;4995236;28;20044;-90
2023/12/05 10:59:42;;;;;;;1.02;0.93;;;14.00;67.60;;;;;;4995985;28;20040;-89
2023/12/05 11:02:13;;;;;;;1.23;1.08;;;14.00;67.40;;;;;;4978929;28;20310;-89
2023/12/05 11:04:41;;;;;;;1.63;1.05;;;14.00;67.20;;;;;;4990471;28;20054;-87
2023/12/05 11:07:10;;;;;;;1.83;1.15;;;14.00;67.10;;;;;;4988927;28;20053;-90
2023/12/05 11:09:40;;;;;;;1.20;1.10;;;14.10;67.00;;;;;;4999697;28;20121;-92
2023/12/05 11:12:08;;;;;;;1.55;1.00;;;14.10;66.90;;;;;;4997780;28;20031;-92
2023/12/05 11:14:44;;;;;;;1.20;1.10;;;14.10;66.70;;;;;;5000630;28;20056;-92
2023/12/05 11:17:17;;;;;;;2.15;1.02;;;14.20;66.60;;;;;;4990009;28;20050;-91
2023/12/05 11:20:16;;;;;;;1.00;0.90;;;14.20;66.50;;;;;;4993814;28;20026;-92
2023/12/05 11:23:05;;;;;;;0.82;0.70;;;14.20;66.20;;;;;;4997479;28;20031;-93
2023/12/05 11:26:00;;;;;;;1.42;1.00;;;14.20;66.00;;;;;;4969651;28;20283;-88
2023/12/05 11:28:37;;;;;;;0.98;0.98;;;14.30;66.00;;;;;;4978597;28;20056;-91
2023/12/05 11:31:30;;;;;;;1.10;1.00;;;14.40;66.10;;;;;;4994489;28;20034;-92
2023/12/05 11:34:23;;;;;;;2.67;1.00;;;14.50;66.00;;;;;;4987991;28;20408;-93
2023/12/05 11:36:54;;;;;;;1.67;1.17;;;14.50;65.70;;;;;;4989737;28;20048;-93
2023/12/05 11:39:21;;;;;;;1.27;1.00;;;14.60;65.80;;;;;;4995538;28;20081;-95
2023/12/05 11:42:10;;;;;;;1.35;1.17;;;14.60;65.60;;;;;;4973741;28;20037;-91
2023/12/05 11:44:41;;;;;;;1.15;0.98;;;14.70;65.30;;;;;;4992286;28;20061;-86
2023/12/05 11:47:14;;;;;;;1.30;0.88;;;14.70;65.30;;;;;;4993883;28;20307;-88
2023/12/05 11:49:53;;;;;;;2.17;0.90;;;14.80;65.20;;;;;;5005529;28;20045;-89
2023/12/05 11:52:20;;;;;;;0.98;0.80;;;14.80;64.90;;;;;;4993203;28;20034;-87
2023/12/05 11:54:48;;;;;;;0.80;0.77;;;14.80;64.90;;;;;;4974738;28;20053;-83
2023/12/05 11:57:18;;;;;;;1.98;0.95;;;14.90;64.90;;;;;;4955795;28;20235;-88
2023/12/05 11:59:45;;;;;;;2.83;0.90;;;15.00;64.80;;;;;;4995808;28;20486;-89
2023/12/05 12:02:13;;;;;;;1.40;1.20;;;15.00;64.70;;;;;;4987642;28;20045;-88
2023/12/05 12:04:40;;;;;;;1.88;1.10;;;15.10;64.60;;;;;;5000355;28;20092;-84
2023/12/05 12:07:16;;;;;;;4.82;1.60;;;15.10;64.40;;;;;;5007402;28;20064;-84
2023/12/05 12:09:52;;;;;;;1.25;1.15;;;15.10;63.90;;;;;;4964296;28;20514;-83
2023/12/05 12:12:21;;;;;;;1.60;1.13;;;15.10;63.70;;;;;;4988472;28;20038;-83
2023/12/05 12:14:48;;;;;;;1.70;1.20;;;15.00;63.40;;;;;;4975331;28;20046;-86
2023/12/05 12:17:19;;;;;;;1.13;1.02;;;14.90;63.30;;;;;;4987904;28;20440;-82
2023/12/05 12:20:09;;;;;;;1.60;1.25;;;14.70;63.00;;;;;;4985222;28;20056;-85
2023/12/05 12:22:54;;;;;;;1.27;1.17;;;14.50;62.80;;;;;;4990691;28;20092;-86
2023/12/05 12:25:53;;;;;;;1.73;1.52;;;14.40;62.90;;;;;;4994688;28;20040;-88
2023/12/05 12:28:42;;;;;;;1.67;1.33;;;14.20;62.60;;;;;;4992074;28;20049;-85
2023/12/05 12:31:24;;;;;;;1.55;1.42;;;14.00;62.50;;;;;;4990739;28;20045;-84
2023/12/05 12:33:51;;;;;;;1.40;1.20;;;13.90;62.30;;;;;;4988815;28;20042;-84
2023/12/05 12:36:22;;;;;;;1.30;1.20;;;13.80;62.50;;;;;;4988505;28;20034;-85
2023/12/05 12:38:49;;;;;;;1.50;1.40;;;13.70;62.30;;;;;;4994076;28;20096;-85
2023/12/05 12:41:26;;;;;;;1.50;1.40;;;13.60;62.20;;;;;;5000256;28;20318;-84
2023/12/05 12:43:53;;;;;;;1.48;1.38;;;13.40;61.90;;;;;;4977730;28;20060;-83
2023/12/05 12:46:19;;;;;;;1.92;1.50;;;13.30;61.80;;;;;;4979143;28;20030;-84
2023/12/05 12:48:45;;;;;;;1.20;1.05;;;13.20;61.80;;;;;;4998485;28;20050;-84
2023/12/05 12:51:12;;;;;;;1.38;1.27;;;13.10;61.70;;;;;;4990611;28;20036;-85
2023/12/05 12:53:39;;;;;;;1.60;1.50;;;13.10;61.80;;;;;;5006624;28;20107;-84
2023/12/05 12:56:09;;;;;;;1.50;1.40;;;12.90;61.50;;;;;;5009218;28;20091;-84
2023/12/05 12:58:39;;;;;;;1.50;1.40;;;12.80;61.50;;;;;;5006803;28;20042;-83
2023/12/05 13:01:05;;;;;;;1.77;1.40;;;12.70;61.40;;;;;;5009668;28;20037;-84
2023/12/05 13:03:35;;;;;;;1.70;1.60;;;12.60;61.40;;;;;;5009224;28;20056;-84